sensor_id;sensor_type;location;lat;lon;timestamp;P1;durP1;ratioP1;P2;durP2;ratioP2
58954;SDS011;45815;52.334;5.024;2023-07-31T00:01:18;9.52;;;2.78;;
58954;SDS011;45815;52.334;5.024;2023-07-31T00:03:44;11.88;;;2.50;;
58954;SDS011;45815;52.334;5.024;2023-07-31T00:06:10;12.40;;;2.50;;
58954;SDS011;45815;52.334;5.024;2023-07-31T00:08:35;10.70;;;2.65;;
58954;SDS011;45815;52.334;5.024;2023-07-31T00:11:01;14.10;;;2.72;;
58954;SDS011;45815;52.334;5.024;2023-07-31T00:13:26;8.13;;;2.50;;
58954;SDS011;45815;52.334;5.024;2023-07-31T00:15:52;11.43;;;2.70;;
58954;SDS011;45815;52.334;5.024;2023-07-31T00:18:17;10.57;;;2.85;;
58954;SDS011;45815;52.334;5.024;2023-07-31T00:20:42;13.10;;;2.78;;
58954;SDS011;45815;52.334;5.024;2023-07-31T00:23:08;7.68;;;2.50;;
58954;SDS011;45815;52.334;5.024;2023-07-31T00:25:33;13.38;;;3.38;;
58954;SDS011;45815;52.334;5.024;2023-07-31T00:27:59;10.68;;;2.58;;
58954;SDS011;45815;52.334;5.024;2023-07-31T00:30:25;12.13;;;3.00;;
58954;SDS011;45815;52.334;5.024;2023-07-31T00:32:52;10.18;;;2.67;;
58954;SDS011;45815;52.334;5.024;2023-07-31T00:35:18;8.48;;;2.63;;
58954;SDS011;45815;52.334;5.024;2023-07-31T00:37:43;10.82;;;2.78;;
58954;SDS011;45815;52.334;5.024;2023-07-31T00:40:09;10.18;;;2.65;;
58954;SDS011;45815;52.334;5.024;2023-07-31T00:42:34;8.38;;;2.20;;
58954;SDS011;45815;52.334;5.024;2023-07-31T00:45:00;9.20;;;2.58;;
58954;SDS011;45815;52.334;5.024;2023-07-31T00:47:25;7.45;;;2.53;;
58954;SDS011;45815;52.334;5.024;2023-07-31T00:49:51;10.60;;;2.63;;
58954;SDS011;45815;52.334;5.024;2023-07-31T00:52:18;9.35;;;3.00;;
58954;SDS011;45815;52.334;5.024;2023-07-31T00:54:44;11.02;;;2.75;;
58954;SDS011;45815;52.334;5.024;2023-07-31T00:57:10;8.52;;;2.53;;
58954;SDS011;45815;52.334;5.024;2023-07-31T00:59:35;13.07;;;3.90;;
58954;SDS011;45815;52.334;5.024;2023-07-31T01:02:01;14.40;;;3.20;;
58954;SDS011;45815;52.334;5.024;2023-07-31T01:04:28;11.57;;;3.28;;
58954;SDS011;45815;52.334;5.024;2023-07-31T01:07:01;13.85;;;3.42;;
58954;SDS011;45815;52.334;5.024;2023-07-31T01:09:33;11.38;;;3.15;;
58954;SDS011;45815;52.334;5.024;2023-07-31T01:12:07;12.55;;;3.47;;
58954;SDS011;45815;52.334;5.024;2023-07-31T01:14:37;13.73;;;3.40;;
58954;SDS011;45815;52.334;5.024;2023-07-31T01:17:03;12.65;;;3.38;;
58954;SDS011;45815;52.334;5.024;2023-07-31T01:19:29;16.88;;;4.00;;
58954;SDS011;45815;52.334;5.024;2023-07-31T01:27:30;16.33;;;4.07;;
58954;SDS011;45815;52.334;5.024;2023-07-31T01:30:08;14.88;;;4.18;;
58954;SDS011;45815;52.334;5.024;2023-07-31T01:32:42;16.25;;;4.40;;
58954;SDS011;45815;52.334;5.024;2023-07-31T01:35:09;13.65;;;4.38;;
58954;SDS011;45815;52.334;5.024;2023-07-31T01:37:35;18.10;;;4.57;;
58954;SDS011;45815;52.334;5.024;2023-07-31T01:40:01;14.23;;;4.20;;
58954;SDS011;45815;52.334;5.024;2023-07-31T01:42:26;16.13;;;4.35;;
58954;SDS011;45815;52.334;5.024;2023-07-31T01:44:52;16.95;;;5.18;;
58954;SDS011;45815;52.334;5.024;2023-07-31T01:47:18;21.55;;;5.35;;
58954;SDS011;45815;52.334;5.024;2023-07-31T01:49:44;17.33;;;4.90;;
58954;SDS011;45815;52.334;5.024;2023-07-31T01:52:09;20.65;;;5.05;;
58954;SDS011;45815;52.334;5.024;2023-07-31T01:54:34;18.70;;;5.13;;
58954;SDS011;45815;52.334;5.024;2023-07-31T01:57:01;25.65;;;5.88;;
58954;SDS011;45815;52.334;5.024;2023-07-31T01:59:28;19.63;;;5.65;;
58954;SDS011;45815;52.334;5.024;2023-07-31T02:01:54;20.67;;;5.20;;
58954;SDS011;45815;52.334;5.024;2023-07-31T02:04:19;18.52;;;5.78;;
58954;SDS011;45815;52.334;5.024;2023-07-31T02:06:44;22.55;;;5.78;;
58954;SDS011;45815;52.334;5.024;2023-07-31T02:09:10;20.38;;;5.93;;
58954;SDS011;45815;52.334;5.024;2023-07-31T02:11:35;23.27;;;5.93;;
58954;SDS011;45815;52.334;5.024;2023-07-31T02:14:01;19.77;;;5.30;;
58954;SDS011;45815;52.334;5.024;2023-07-31T02:16:26;25.88;;;6.60;;
58954;SDS011;45815;52.334;5.024;2023-07-31T02:18:52;20.42;;;6.32;;
58954;SDS011;45815;52.334;5.024;2023-07-31T02:21:17;24.88;;;6.03;;
58954;SDS011;45815;52.334;5.024;2023-07-31T02:23:43;22.30;;;7.10;;
58954;SDS011;45815;52.334;5.024;2023-07-31T02:26:08;21.02;;;6.63;;
58954;SDS011;45815;52.334;5.024;2023-07-31T02:28:33;24.25;;;6.55;;
58954;SDS011;45815;52.334;5.024;2023-07-31T02:30:59;26.40;;;7.25;;
58954;SDS011;45815;52.334;5.024;2023-07-31T02:33:24;23.52;;;6.63;;
58954;SDS011;45815;52.334;5.024;2023-07-31T02:35:50;24.85;;;6.82;;
58954;SDS011;45815;52.334;5.024;2023-07-31T02:38:16;26.30;;;7.25;;
58954;SDS011;45815;52.334;5.024;2023-07-31T02:40:42;17.30;;;6.45;;
58954;SDS011;45815;52.334;5.024;2023-07-31T02:43:07;24.38;;;7.28;;
58954;SDS011;45815;52.334;5.024;2023-07-31T02:45:33;23.08;;;6.47;;
58954;SDS011;45815;52.334;5.024;2023-07-31T02:47:59;23.75;;;6.05;;
58954;SDS011;45815;52.334;5.024;2023-07-31T02:50:24;24.27;;;7.47;;
58954;SDS011;45815;52.334;5.024;2023-07-31T02:52:49;19.17;;;6.18;;
58954;SDS011;45815;52.334;5.024;2023-07-31T02:55:15;23.05;;;6.10;;
58954;SDS011;45815;52.334;5.024;2023-07-31T02:57:40;23.73;;;6.68;;
58954;SDS011;45815;52.334;5.024;2023-07-31T03:00:06;25.42;;;7.88;;
58954;SDS011;45815;52.334;5.024;2023-07-31T03:02:32;17.80;;;6.22;;
58954;SDS011;45815;52.334;5.024;2023-07-31T03:04:58;23.63;;;6.70;;
58954;SDS011;45815;52.334;5.024;2023-07-31T03:07:23;19.23;;;5.88;;
58954;SDS011;45815;52.334;5.024;2023-07-31T03:09:48;22.55;;;5.85;;
58954;SDS011;45815;52.334;5.024;2023-07-31T03:12:14;25.85;;;7.95;;
58954;SDS011;45815;52.334;5.024;2023-07-31T03:14:40;23.48;;;6.35;;
58954;SDS011;45815;52.334;5.024;2023-07-31T03:17:05;24.25;;;6.90;;
58954;SDS011;45815;52.334;5.024;2023-07-31T03:19:31;27.88;;;6.57;;
58954;SDS011;45815;52.334;5.024;2023-07-31T03:21:57;29.08;;;6.70;;
58954;SDS011;45815;52.334;5.024;2023-07-31T03:24:23;17.88;;;6.30;;
58954;SDS011;45815;52.334;5.024;2023-07-31T03:26:49;25.05;;;6.82;;
58954;SDS011;45815;52.334;5.024;2023-07-31T03:29:14;22.85;;;6.65;;
58954;SDS011;45815;52.334;5.024;2023-07-31T03:31:40;18.17;;;5.95;;
58954;SDS011;45815;52.334;5.024;2023-07-31T03:34:05;21.40;;;6.40;;
58954;SDS011;45815;52.334;5.024;2023-07-31T03:36:30;25.63;;;6.75;;
58954;SDS011;45815;52.334;5.024;2023-07-31T03:38:56;24.27;;;6.57;;
58954;SDS011;45815;52.334;5.024;2023-07-31T03:41:22;30.13;;;6.55;;
58954;SDS011;45815;52.334;5.024;2023-07-31T03:43:49;32.42;;;6.90;;
58954;SDS011;45815;52.334;5.024;2023-07-31T03:46:21;23.95;;;6.80;;
58954;SDS011;45815;52.334;5.024;2023-07-31T03:48:47;24.55;;;6.60;;
58954;SDS011;45815;52.334;5.024;2023-07-31T03:51:13;21.45;;;6.30;;
58954;SDS011;45815;52.334;5.024;2023-07-31T03:53:38;22.45;;;6.70;;
58954;SDS011;45815;52.334;5.024;2023-07-31T03:56:04;18.92;;;6.32;;
58954;SDS011;45815;52.334;5.024;2023-07-31T03:58:29;29.85;;;7.07;;
58954;SDS011;45815;52.334;5.024;2023-07-31T04:00:55;30.02;;;7.97;;
58954;SDS011;45815;52.334;5.024;2023-07-31T04:03:20;25.65;;;6.85;;
58954;SDS011;45815;52.334;5.024;2023-07-31T04:05:46;21.23;;;6.72;;
58954;SDS011;45815;52.334;5.024;2023-07-31T04:08:11;27.30;;;6.85;;
58954;SDS011;45815;52.334;5.024;2023-07-31T04:10:36;30.38;;;7.45;;
58954;SDS011;45815;52.334;5.024;2023-07-31T04:13:02;18.27;;;6.32;;
58954;SDS011;45815;52.334;5.024;2023-07-31T04:15:27;23.45;;;6.43;;
58954;SDS011;45815;52.334;5.024;2023-07-31T04:17:53;20.80;;;7.03;;
58954;SDS011;45815;52.334;5.024;2023-07-31T04:20:18;24.38;;;6.18;;
58954;SDS011;45815;52.334;5.024;2023-07-31T04:22:44;24.98;;;6.72;;
58954;SDS011;45815;52.334;5.024;2023-07-31T04:25:09;26.25;;;7.05;;
58954;SDS011;45815;52.334;5.024;2023-07-31T04:27:34;23.58;;;6.75;;
58954;SDS011;45815;52.334;5.024;2023-07-31T04:30:00;22.80;;;6.20;;
58954;SDS011;45815;52.334;5.024;2023-07-31T04:32:25;26.67;;;7.35;;
58954;SDS011;45815;52.334;5.024;2023-07-31T04:34:51;23.35;;;7.40;;
58954;SDS011;45815;52.334;5.024;2023-07-31T04:37:16;25.95;;;7.88;;
58954;SDS011;45815;52.334;5.024;2023-07-31T04:39:42;26.35;;;7.10;;
58954;SDS011;45815;52.334;5.024;2023-07-31T04:42:07;23.00;;;7.03;;
58954;SDS011;45815;52.334;5.024;2023-07-31T04:44:32;20.58;;;6.57;;
58954;SDS011;45815;52.334;5.024;2023-07-31T04:46:58;23.20;;;6.70;;
58954;SDS011;45815;52.334;5.024;2023-07-31T04:49:23;18.27;;;5.88;;
58954;SDS011;45815;52.334;5.024;2023-07-31T04:51:49;20.50;;;6.30;;
58954;SDS011;45815;52.334;5.024;2023-07-31T04:54:14;23.80;;;6.25;;
58954;SDS011;45815;52.334;5.024;2023-07-31T04:56:40;27.05;;;6.28;;
58954;SDS011;45815;52.334;5.024;2023-07-31T04:59:06;16.67;;;6.13;;
58954;SDS011;45815;52.334;5.024;2023-07-31T05:01:32;27.10;;;6.80;;
58954;SDS011;45815;52.334;5.024;2023-07-31T05:03:57;24.10;;;6.13;;
58954;SDS011;45815;52.334;5.024;2023-07-31T05:06:22;23.30;;;6.38;;
58954;SDS011;45815;52.334;5.024;2023-07-31T05:08:48;19.00;;;6.28;;
58954;SDS011;45815;52.334;5.024;2023-07-31T05:11:13;18.75;;;5.75;;
58954;SDS011;45815;52.334;5.024;2023-07-31T05:13:39;20.70;;;5.75;;
58954;SDS011;45815;52.334;5.024;2023-07-31T05:16:04;17.13;;;5.45;;
58954;SDS011;45815;52.334;5.024;2023-07-31T05:18:30;10.73;;;4.10;;
58954;SDS011;45815;52.334;5.024;2023-07-31T05:20:55;13.13;;;3.45;;
58954;SDS011;45815;52.334;5.024;2023-07-31T05:23:20;8.32;;;3.55;;
58954;SDS011;45815;52.334;5.024;2023-07-31T05:25:46;11.07;;;3.15;;
58954;SDS011;45815;52.334;5.024;2023-07-31T05:28:12;7.35;;;3.13;;
58954;SDS011;45815;52.334;5.024;2023-07-31T05:30:37;8.70;;;3.50;;
58954;SDS011;45815;52.334;5.024;2023-07-31T05:33:03;7.47;;;3.03;;
58954;SDS011;45815;52.334;5.024;2023-07-31T05:35:28;7.53;;;2.70;;
58954;SDS011;45815;52.334;5.024;2023-07-31T05:37:54;6.72;;;2.38;;
58954;SDS011;45815;52.334;5.024;2023-07-31T05:40:19;7.90;;;2.95;;
58954;SDS011;45815;52.334;5.024;2023-07-31T05:42:45;7.95;;;2.20;;
58954;SDS011;45815;52.334;5.024;2023-07-31T05:45:10;6.63;;;2.40;;
58954;SDS011;45815;52.334;5.024;2023-07-31T05:47:35;17.90;;;9.63;;
58954;SDS011;45815;52.334;5.024;2023-07-31T05:50:01;18.23;;;9.90;;
58954;SDS011;45815;52.334;5.024;2023-07-31T05:52:26;34.78;;;20.60;;
58954;SDS011;45815;52.334;5.024;2023-07-31T05:54:54;7.55;;;2.95;;
58954;SDS011;45815;52.334;5.024;2023-07-31T05:57:19;8.55;;;2.45;;
58954;SDS011;45815;52.334;5.024;2023-07-31T05:59:45;7.22;;;2.42;;
58954;SDS011;45815;52.334;5.024;2023-07-31T06:02:10;7.80;;;2.45;;
58954;SDS011;45815;52.334;5.024;2023-07-31T06:04:36;5.03;;;1.90;;
58954;SDS011;45815;52.334;5.024;2023-07-31T06:07:01;5.03;;;1.98;;
58954;SDS011;45815;52.334;5.024;2023-07-31T06:09:28;5.78;;;2.13;;
58954;SDS011;45815;52.334;5.024;2023-07-31T06:11:53;6.35;;;2.53;;
58954;SDS011;45815;52.334;5.024;2023-07-31T06:14:18;5.75;;;2.28;;
58954;SDS011;45815;52.334;5.024;2023-07-31T06:16:44;5.88;;;2.20;;
58954;SDS011;45815;52.334;5.024;2023-07-31T06:19:10;5.10;;;2.28;;
58954;SDS011;45815;52.334;5.024;2023-07-31T06:21:35;5.75;;;2.42;;
58954;SDS011;45815;52.334;5.024;2023-07-31T06:24:05;6.20;;;2.28;;
58954;SDS011;45815;52.334;5.024;2023-07-31T06:26:30;7.63;;;2.35;;
58954;SDS011;45815;52.334;5.024;2023-07-31T06:28:56;7.28;;;2.28;;
58954;SDS011;45815;52.334;5.024;2023-07-31T06:31:21;7.25;;;2.30;;
58954;SDS011;45815;52.334;5.024;2023-07-31T06:33:48;5.63;;;2.35;;
58954;SDS011;45815;52.334;5.024;2023-07-31T06:36:14;6.68;;;2.00;;
58954;SDS011;45815;52.334;5.024;2023-07-31T06:38:40;9.00;;;2.20;;
58954;SDS011;45815;52.334;5.024;2023-07-31T06:41:05;6.15;;;1.75;;
58954;SDS011;45815;52.334;5.024;2023-07-31T06:43:31;6.32;;;2.10;;
58954;SDS011;45815;52.334;5.024;2023-07-31T06:45:56;4.88;;;1.60;;
58954;SDS011;45815;52.334;5.024;2023-07-31T06:48:21;4.82;;;1.40;;
58954;SDS011;45815;52.334;5.024;2023-07-31T06:50:47;3.88;;;1.50;;
58954;SDS011;45815;52.334;5.024;2023-07-31T06:53:12;3.22;;;1.20;;
58954;SDS011;45815;52.334;5.024;2023-07-31T06:55:38;4.53;;;1.58;;
58954;SDS011;45815;52.334;5.024;2023-07-31T06:58:03;3.38;;;1.40;;
58954;SDS011;45815;52.334;5.024;2023-07-31T07:00:29;3.03;;;1.10;;
58954;SDS011;45815;52.334;5.024;2023-07-31T07:02:54;4.78;;;1.67;;
58954;SDS011;45815;52.334;5.024;2023-07-31T07:05:19;5.07;;;1.73;;
58954;SDS011;45815;52.334;5.024;2023-07-31T07:07:45;3.78;;;1.60;;
58954;SDS011;45815;52.334;5.024;2023-07-31T07:10:11;3.47;;;1.30;;
58954;SDS011;45815;52.334;5.024;2023-07-31T07:12:36;5.80;;;1.50;;
58954;SDS011;45815;52.334;5.024;2023-07-31T07:15:02;2.90;;;1.10;;
58954;SDS011;45815;52.334;5.024;2023-07-31T07:17:28;3.13;;;1.00;;
58954;SDS011;45815;52.334;5.024;2023-07-31T07:19:57;3.45;;;0.95;;
58954;SDS011;45815;52.334;5.024;2023-07-31T07:22:23;4.47;;;1.20;;
58954;SDS011;45815;52.334;5.024;2023-07-31T07:24:49;2.42;;;1.00;;
58954;SDS011;45815;52.334;5.024;2023-07-31T07:27:14;3.25;;;1.15;;
58954;SDS011;45815;52.334;5.024;2023-07-31T07:29:40;2.58;;;1.02;;
58954;SDS011;45815;52.334;5.024;2023-07-31T07:32:07;2.08;;;0.90;;
58954;SDS011;45815;52.334;5.024;2023-07-31T07:34:33;2.58;;;1.00;;
58954;SDS011;45815;52.334;5.024;2023-07-31T07:36:59;4.40;;;0.90;;
58954;SDS011;45815;52.334;5.024;2023-07-31T07:39:24;2.70;;;1.00;;
58954;SDS011;45815;52.334;5.024;2023-07-31T07:41:50;3.53;;;0.85;;
58954;SDS011;45815;52.334;5.024;2023-07-31T07:44:15;2.60;;;1.00;;
58954;SDS011;45815;52.334;5.024;2023-07-31T07:46:41;2.20;;;0.85;;
58954;SDS011;45815;52.334;5.024;2023-07-31T07:49:06;2.25;;;0.90;;
58954;SDS011;45815;52.334;5.024;2023-07-31T07:51:31;3.92;;;0.70;;
58954;SDS011;45815;52.334;5.024;2023-07-31T07:53:58;2.95;;;0.70;;
58954;SDS011;45815;52.334;5.024;2023-07-31T07:56:25;2.28;;;0.80;;
58954;SDS011;45815;52.334;5.024;2023-07-31T07:58:51;1.75;;;0.60;;
58954;SDS011;45815;52.334;5.024;2023-07-31T08:01:16;1.92;;;0.68;;
58954;SDS011;45815;52.334;5.024;2023-07-31T08:03:42;1.83;;;0.60;;
58954;SDS011;45815;52.334;5.024;2023-07-31T08:06:07;1.67;;;0.60;;
58954;SDS011;45815;52.334;5.024;2023-07-31T08:08:37;1.98;;;0.70;;
58954;SDS011;45815;52.334;5.024;2023-07-31T08:11:03;1.02;;;0.47;;
58954;SDS011;45815;52.334;5.024;2023-07-31T08:13:28;1.98;;;0.80;;
58954;SDS011;45815;52.334;5.024;2023-07-31T08:15:54;2.15;;;0.60;;
58954;SDS011;45815;52.334;5.024;2023-07-31T08:18:19;1.60;;;0.65;;
58954;SDS011;45815;52.334;5.024;2023-07-31T08:20:45;1.23;;;0.52;;
58954;SDS011;45815;52.334;5.024;2023-07-31T08:23:11;1.70;;;0.60;;
58954;SDS011;45815;52.334;5.024;2023-07-31T08:25:37;1.05;;;0.50;;
58954;SDS011;45815;52.334;5.024;2023-07-31T08:28:03;1.38;;;0.70;;
58954;SDS011;45815;52.334;5.024;2023-07-31T08:30:29;1.90;;;0.70;;
58954;SDS011;45815;52.334;5.024;2023-07-31T08:32:55;2.63;;;0.70;;
58954;SDS011;45815;52.334;5.024;2023-07-31T08:35:20;2.53;;;0.70;;
58954;SDS011;45815;52.334;5.024;2023-07-31T08:37:46;5.15;;;0.90;;
58954;SDS011;45815;52.334;5.024;2023-07-31T08:40:11;2.90;;;0.88;;
58954;SDS011;45815;52.334;5.024;2023-07-31T08:42:48;2.25;;;0.90;;
58954;SDS011;45815;52.334;5.024;2023-07-31T08:45:16;1.80;;;0.70;;
58954;SDS011;45815;52.334;5.024;2023-07-31T08:47:47;2.75;;;0.80;;
58954;SDS011;45815;52.334;5.024;2023-07-31T08:50:14;3.65;;;0.90;;
58954;SDS011;45815;52.334;5.024;2023-07-31T08:52:40;2.30;;;0.70;;
58954;SDS011;45815;52.334;5.024;2023-07-31T08:55:06;2.45;;;0.80;;
58954;SDS011;45815;52.334;5.024;2023-07-31T08:57:34;4.72;;;0.93;;
58954;SDS011;45815;52.334;5.024;2023-07-31T09:00:04;3.55;;;1.02;;
58954;SDS011;45815;52.334;5.024;2023-07-31T09:02:34;6.13;;;1.30;;
58954;SDS011;45815;52.334;5.024;2023-07-31T09:05:21;3.45;;;1.00;;
58954;SDS011;45815;52.334;5.024;2023-07-31T09:07:48;5.53;;;1.20;;
58954;SDS011;45815;52.334;5.024;2023-07-31T09:10:15;5.60;;;1.25;;
58954;SDS011;45815;52.334;5.024;2023-07-31T09:12:40;4.85;;;1.25;;
58954;SDS011;45815;52.334;5.024;2023-07-31T09:15:06;5.72;;;1.60;;
58954;SDS011;45815;52.334;5.024;2023-07-31T09:17:34;5.75;;;1.38;;
58954;SDS011;45815;52.334;5.024;2023-07-31T09:20:17;5.80;;;1.50;;
58954;SDS011;45815;52.334;5.024;2023-07-31T09:22:44;7.13;;;1.65;;
58954;SDS011;45815;52.334;5.024;2023-07-31T09:25:20;5.38;;;1.73;;
58954;SDS011;45815;52.334;5.024;2023-07-31T09:30:12;8.48;;;2.25;;
58954;SDS011;45815;52.334;5.024;2023-07-31T09:32:38;13.50;;;2.38;;
58954;SDS011;45815;52.334;5.024;2023-07-31T09:35:13;9.82;;;2.45;;
58954;SDS011;45815;52.334;5.024;2023-07-31T09:37:51;8.52;;;1.85;;
58954;SDS011;45815;52.334;5.024;2023-07-31T09:40:28;9.63;;;1.85;;
58954;SDS011;45815;52.334;5.024;2023-07-31T09:42:58;8.55;;;2.20;;
58954;SDS011;45815;52.334;5.024;2023-07-31T09:45:25;9.55;;;2.38;;
58954;SDS011;45815;52.334;5.024;2023-07-31T09:47:51;7.45;;;2.00;;
58954;SDS011;45815;52.334;5.024;2023-07-31T09:50:17;10.82;;;2.25;;
58954;SDS011;45815;52.334;5.024;2023-07-31T09:52:42;7.93;;;1.70;;
58954;SDS011;45815;52.334;5.024;2023-07-31T09:55:09;6.90;;;2.08;;
58954;SDS011;45815;52.334;5.024;2023-07-31T09:57:39;7.80;;;2.17;;
58954;SDS011;45815;52.334;5.024;2023-07-31T10:00:10;12.32;;;2.22;;
58954;SDS011;45815;52.334;5.024;2023-07-31T10:02:37;13.63;;;2.60;;
58954;SDS011;45815;52.334;5.024;2023-07-31T10:05:03;11.25;;;2.60;;
58954;SDS011;45815;52.334;5.024;2023-07-31T10:07:30;13.00;;;2.67;;
58954;SDS011;45815;52.334;5.024;2023-07-31T10:09:59;13.13;;;2.63;;
58954;SDS011;45815;52.334;5.024;2023-07-31T10:12:26;11.40;;;2.92;;
58954;SDS011;45815;52.334;5.024;2023-07-31T10:14:55;11.90;;;2.67;;
58954;SDS011;45815;52.334;5.024;2023-07-31T10:17:22;10.15;;;2.70;;
58954;SDS011;45815;52.334;5.024;2023-07-31T10:19:49;11.63;;;4.00;;
58954;SDS011;45815;52.334;5.024;2023-07-31T10:22:15;11.57;;;2.60;;
58954;SDS011;45815;52.334;5.024;2023-07-31T10:24:47;10.25;;;3.08;;
58954;SDS011;45815;52.334;5.024;2023-07-31T10:27:14;11.60;;;2.70;;
58954;SDS011;45815;52.334;5.024;2023-07-31T10:29:39;11.10;;;3.00;;
58954;SDS011;45815;52.334;5.024;2023-07-31T10:32:07;10.98;;;2.60;;
58954;SDS011;45815;52.334;5.024;2023-07-31T10:34:36;12.70;;;2.92;;
58954;SDS011;45815;52.334;5.024;2023-07-31T10:39:55;11.23;;;2.97;;
58954;SDS011;45815;52.334;5.024;2023-07-31T10:42:32;13.52;;;3.63;;
58954;SDS011;45815;52.334;5.024;2023-07-31T10:45:03;11.45;;;2.40;;
58954;SDS011;45815;52.334;5.024;2023-07-31T10:47:30;8.38;;;2.13;;
58954;SDS011;45815;52.334;5.024;2023-07-31T10:52:49;10.13;;;2.63;;
58954;SDS011;45815;52.334;5.024;2023-07-31T10:55:24;10.40;;;2.30;;
58954;SDS011;45815;52.334;5.024;2023-07-31T10:57:49;9.95;;;2.80;;
58954;SDS011;45815;52.334;5.024;2023-07-31T11:00:25;10.00;;;2.70;;
58954;SDS011;45815;52.334;5.024;2023-07-31T11:02:57;9.57;;;2.55;;
58954;SDS011;45815;52.334;5.024;2023-07-31T11:05:43;7.38;;;2.40;;
58954;SDS011;45815;52.334;5.024;2023-07-31T11:08:22;13.15;;;2.50;;
58954;SDS011;45815;52.334;5.024;2023-07-31T11:13:27;10.25;;;2.58;;
58954;SDS011;45815;52.334;5.024;2023-07-31T11:15:56;7.57;;;2.35;;
58954;SDS011;45815;52.334;5.024;2023-07-31T11:18:22;6.93;;;2.15;;
58954;SDS011;45815;52.334;5.024;2023-07-31T11:20:47;10.85;;;2.72;;
58954;SDS011;45815;52.334;5.024;2023-07-31T11:23:15;8.10;;;2.28;;
58954;SDS011;45815;52.334;5.024;2023-07-31T11:25:41;10.02;;;2.80;;
58954;SDS011;45815;52.334;5.024;2023-07-31T11:28:10;8.30;;;2.30;;
58954;SDS011;45815;52.334;5.024;2023-07-31T11:30:37;10.10;;;2.95;;
58954;SDS011;45815;52.334;5.024;2023-07-31T11:33:04;10.60;;;2.63;;
58954;SDS011;45815;52.334;5.024;2023-07-31T11:35:35;13.45;;;2.83;;
58954;SDS011;45815;52.334;5.024;2023-07-31T11:38:06;10.30;;;4.55;;
58954;SDS011;45815;52.334;5.024;2023-07-31T11:40:40;11.63;;;2.70;;
58954;SDS011;45815;52.334;5.024;2023-07-31T11:43:07;8.45;;;2.30;;
58954;SDS011;45815;52.334;5.024;2023-07-31T11:45:32;8.48;;;2.22;;
58954;SDS011;45815;52.334;5.024;2023-07-31T11:48:00;11.60;;;2.40;;
58954;SDS011;45815;52.334;5.024;2023-07-31T11:50:26;10.77;;;2.45;;
58954;SDS011;45815;52.334;5.024;2023-07-31T11:53:02;10.27;;;2.70;;
58954;SDS011;45815;52.334;5.024;2023-07-31T11:55:32;12.07;;;2.30;;
58954;SDS011;45815;52.334;5.024;2023-07-31T11:57:58;9.13;;;2.65;;
58954;SDS011;45815;52.334;5.024;2023-07-31T12:00:25;8.48;;;2.42;;
58954;SDS011;45815;52.334;5.024;2023-07-31T12:02:52;10.07;;;2.42;;
58954;SDS011;45815;52.334;5.024;2023-07-31T12:05:18;9.30;;;2.45;;
58954;SDS011;45815;52.334;5.024;2023-07-31T12:07:47;6.90;;;2.00;;
58954;SDS011;45815;52.334;5.024;2023-07-31T12:10:26;5.75;;;1.90;;
58954;SDS011;45815;52.334;5.024;2023-07-31T12:13:05;11.27;;;2.85;;
58954;SDS011;45815;52.334;5.024;2023-07-31T12:15:34;6.88;;;2.15;;
58954;SDS011;45815;52.334;5.024;2023-07-31T12:18:05;9.48;;;2.05;;
58954;SDS011;45815;52.334;5.024;2023-07-31T12:20:31;9.60;;;2.28;;
58954;SDS011;45815;52.334;5.024;2023-07-31T12:22:57;9.60;;;2.20;;
58954;SDS011;45815;52.334;5.024;2023-07-31T12:25:28;7.80;;;2.70;;
58954;SDS011;45815;52.334;5.024;2023-07-31T12:27:54;10.57;;;2.50;;
58954;SDS011;45815;52.334;5.024;2023-07-31T12:30:26;7.50;;;2.00;;
58954;SDS011;45815;52.334;5.024;2023-07-31T12:33:03;8.50;;;2.33;;
58954;SDS011;45815;52.334;5.024;2023-07-31T12:35:41;10.30;;;2.50;;
58954;SDS011;45815;52.334;5.024;2023-07-31T12:38:09;13.68;;;2.80;;
58954;SDS011;45815;52.334;5.024;2023-07-31T12:40:35;8.88;;;2.33;;
58954;SDS011;45815;52.334;5.024;2023-07-31T12:43:02;7.68;;;2.50;;
58954;SDS011;45815;52.334;5.024;2023-07-31T12:45:29;8.88;;;2.03;;
58954;SDS011;45815;52.334;5.024;2023-07-31T12:47:55;9.02;;;2.08;;
58954;SDS011;45815;52.334;5.024;2023-07-31T12:50:21;9.82;;;2.25;;
58954;SDS011;45815;52.334;5.024;2023-07-31T12:52:46;7.57;;;1.83;;
58954;SDS011;45815;52.334;5.024;2023-07-31T12:55:12;8.95;;;2.00;;
58954;SDS011;45815;52.334;5.024;2023-07-31T12:57:37;6.68;;;1.95;;
58954;SDS011;45815;52.334;5.024;2023-07-31T13:00:03;5.97;;;2.10;;
58954;SDS011;45815;52.334;5.024;2023-07-31T13:02:28;5.57;;;1.85;;
58954;SDS011;45815;52.334;5.024;2023-07-31T13:04:54;6.80;;;1.83;;
58954;SDS011;45815;52.334;5.024;2023-07-31T13:07:21;10.07;;;2.25;;
58954;SDS011;45815;52.334;5.024;2023-07-31T13:09:47;9.18;;;2.33;;
58954;SDS011;45815;52.334;5.024;2023-07-31T13:12:12;7.50;;;2.20;;
58954;SDS011;45815;52.334;5.024;2023-07-31T13:14:38;7.05;;;2.08;;
58954;SDS011;45815;52.334;5.024;2023-07-31T13:17:03;7.60;;;1.83;;
58954;SDS011;45815;52.334;5.024;2023-07-31T13:19:29;7.88;;;2.20;;
58954;SDS011;45815;52.334;5.024;2023-07-31T13:21:54;6.80;;;1.77;;
58954;SDS011;45815;52.334;5.024;2023-07-31T13:24:19;7.28;;;2.20;;
58954;SDS011;45815;52.334;5.024;2023-07-31T13:26:45;10.07;;;2.15;;
58954;SDS011;45815;52.334;5.024;2023-07-31T13:29:10;8.43;;;1.90;;
58954;SDS011;45815;52.334;5.024;2023-07-31T13:31:36;7.60;;;2.15;;
58954;SDS011;45815;52.334;5.024;2023-07-31T13:34:01;6.28;;;2.10;;
58954;SDS011;45815;52.334;5.024;2023-07-31T13:36:27;9.68;;;2.17;;
58954;SDS011;45815;52.334;5.024;2023-07-31T13:38:53;6.22;;;2.10;;
58954;SDS011;45815;52.334;5.024;2023-07-31T13:41:18;5.97;;;1.92;;
58954;SDS011;45815;52.334;5.024;2023-07-31T13:43:44;7.93;;;2.15;;
58954;SDS011;45815;52.334;5.024;2023-07-31T13:46:09;6.78;;;2.40;;
58954;SDS011;45815;52.334;5.024;2023-07-31T13:48:36;7.22;;;1.77;;
58954;SDS011;45815;52.334;5.024;2023-07-31T13:51:01;5.63;;;1.52;;
58954;SDS011;45815;52.334;5.024;2023-07-31T13:53:27;8.98;;;2.42;;
58954;SDS011;45815;52.334;5.024;2023-07-31T13:55:53;7.05;;;1.98;;
58954;SDS011;45815;52.334;5.024;2023-07-31T13:58:20;5.53;;;1.58;;
58954;SDS011;45815;52.334;5.024;2023-07-31T14:00:46;5.43;;;1.73;;
58954;SDS011;45815;52.334;5.024;2023-07-31T14:03:11;4.78;;;1.90;;
58954;SDS011;45815;52.334;5.024;2023-07-31T14:05:37;6.78;;;2.17;;
58954;SDS011;45815;52.334;5.024;2023-07-31T14:08:02;5.88;;;2.05;;
58954;SDS011;45815;52.334;5.024;2023-07-31T14:10:28;6.75;;;1.55;;
58954;SDS011;45815;52.334;5.024;2023-07-31T14:12:54;9.05;;;2.38;;
58954;SDS011;45815;52.334;5.024;2023-07-31T14:15:19;6.80;;;2.00;;
58954;SDS011;45815;52.334;5.024;2023-07-31T14:17:44;5.05;;;1.90;;
58954;SDS011;45815;52.334;5.024;2023-07-31T14:20:10;7.35;;;2.05;;
58954;SDS011;45815;52.334;5.024;2023-07-31T14:22:36;7.38;;;1.63;;
58954;SDS011;45815;52.334;5.024;2023-07-31T14:25:03;6.40;;;1.73;;
58954;SDS011;45815;52.334;5.024;2023-07-31T14:27:28;6.90;;;1.90;;
58954;SDS011;45815;52.334;5.024;2023-07-31T14:29:54;7.93;;;2.22;;
58954;SDS011;45815;52.334;5.024;2023-07-31T14:32:20;4.70;;;1.80;;
58954;SDS011;45815;52.334;5.024;2023-07-31T14:34:46;7.32;;;1.80;;
58954;SDS011;45815;52.334;5.024;2023-07-31T14:37:11;6.50;;;2.00;;
58954;SDS011;45815;52.334;5.024;2023-07-31T14:39:37;8.75;;;2.30;;
58954;SDS011;45815;52.334;5.024;2023-07-31T14:42:02;7.18;;;2.15;;
58954;SDS011;45815;52.334;5.024;2023-07-31T14:44:28;6.95;;;2.20;;
58954;SDS011;45815;52.334;5.024;2023-07-31T14:46:53;8.70;;;2.30;;
58954;SDS011;45815;52.334;5.024;2023-07-31T14:49:19;6.30;;;2.00;;
58954;SDS011;45815;52.334;5.024;2023-07-31T14:51:44;8.63;;;2.05;;
58954;SDS011;45815;52.334;5.024;2023-07-31T14:54:09;10.65;;;2.20;;